createdAt,value
2023-04-15T00:00:22.908Z,8.90
2023-04-15T00:03:23.593Z,8.80
2023-04-15T00:06:06.475Z,8.10
2023-04-15T00:08:47.732Z,9.30
2023-04-15T00:11:49.475Z,8.40
2023-04-15T00:14:28.459Z,9.60
2023-04-15T00:17:26.230Z,9.00
2023-04-15T00:20:02.100Z,9.30
2023-04-15T00:22:41.947Z,10.60
2023-04-15T00:25:47.998Z,10.30
2023-04-15T00:28:40.253Z,9.80
2023-04-15T00:31:30.280Z,9.70
2023-04-15T00:34:23.158Z,10.50
2023-04-15T00:36:56.897Z,10.20
2023-04-15T00:39:33.364Z,10.90
2023-04-15T00:42:12.374Z,9.90
2023-04-15T00:44:48.658Z,10.20
2023-04-15T00:47:29.241Z,9.40
2023-04-15T00:50:15.390Z,10.30
2023-04-15T00:52:49.153Z,9.60
2023-04-15T00:55:22.370Z,8.80
2023-04-15T00:58:02.605Z,9.00
2023-04-15T01:00:49.504Z,9.70
2023-04-15T01:03:25.569Z,10.00
2023-04-15T01:06:03.729Z,9.90
2023-04-15T01:08:38.172Z,9.60
2023-04-15T01:11:14.440Z,10.40
2023-04-15T01:13:51.243Z,11.10
2023-04-15T01:16:29.233Z,10.70
2023-04-15T01:19:03.529Z,11.80
2023-04-15T01:21:52.842Z,10.60
2023-04-15T01:24:58.591Z,9.50
2023-04-15T01:27:48.186Z,11.00
2023-04-15T01:30:26.598Z,10.80
2023-04-15T01:33:03.435Z,10.50
2023-04-15T01:35:41.092Z,10.30
2023-04-15T01:38:31.653Z,10.00
2023-04-15T01:41:07.918Z,12.10
2023-04-15T01:43:43.311Z,11.60
2023-04-15T01:46:18.676Z,10.00
2023-04-15T01:48:56.344Z,11.00
2023-04-15T01:51:37.924Z,10.90
2023-04-15T01:54:12.746Z,11.10
2023-04-15T01:56:49.654Z,13.00
2023-04-15T01:59:28.544Z,12.30
2023-04-15T02:02:07.002Z,11.20
2023-04-15T02:04:51.070Z,10.70
2023-04-15T02:07:32.760Z,12.60
2023-04-15T02:10:12.106Z,11.90
2023-04-15T02:12:48.835Z,11.40
2023-04-15T02:15:31.698Z,14.00
2023-04-15T02:18:13.799Z,12.70
2023-04-15T02:20:57.854Z,12.70
2023-04-15T02:23:35.421Z,13.70
2023-04-15T02:26:21.590Z,13.20
2023-04-15T02:29:01.305Z,14.50
2023-04-15T02:31:42.913Z,13.60
2023-04-15T02:34:20.657Z,12.70
2023-04-15T02:36:58.562Z,12.30
2023-04-15T02:39:40.271Z,13.00
2023-04-15T02:42:13.948Z,12.30
2023-04-15T02:44:57.236Z,12.30
2023-04-15T02:47:40.762Z,12.50
2023-04-15T02:50:24.440Z,11.90
2023-04-15T02:53:12.250Z,11.10
2023-04-15T02:55:54.245Z,13.00
2023-04-15T02:58:35.776Z,11.80
2023-04-15T03:01:26.258Z,11.10
2023-04-15T03:04:11.468Z,10.40
2023-04-15T03:06:47.469Z,11.60
2023-04-15T03:09:32.716Z,10.50
2023-04-15T03:12:28.280Z,11.70
2023-04-15T03:17:53.000Z,11.80
2023-04-15T03:20:51.167Z,10.20
2023-04-15T03:23:23.167Z,10.80
2023-04-15T03:26:07.760Z,9.20
2023-04-15T03:28:46.813Z,10.50
2023-04-15T03:31:20.783Z,10.30
2023-04-15T03:33:55.518Z,9.80
2023-04-15T03:36:38.973Z,9.60
2023-04-15T03:39:17.626Z,9.30
2023-04-15T03:41:53.621Z,10.20
2023-04-15T03:44:33.065Z,10.30
2023-04-15T03:47:07.960Z,10.10
2023-04-15T03:49:49.869Z,10.30
2023-04-15T03:52:29.833Z,10.80
2023-04-15T03:55:05.532Z,10.60
2023-04-15T03:57:50.088Z,10.70
2023-04-15T04:00:25.132Z,11.30
2023-04-15T04:03:04.913Z,11.60
2023-04-15T04:05:51.424Z,11.40
2023-04-15T04:08:47.128Z,9.80
2023-04-15T04:11:20.869Z,9.90
2023-04-15T04:14:00.529Z,9.70
2023-04-15T04:16:36.522Z,9.80
2023-04-15T04:19:09.696Z,10.50
2023-04-15T04:21:50.748Z,9.60
2023-04-15T04:24:36.016Z,10.10
2023-04-15T04:27:19.815Z,9.90
2023-04-15T04:30:08.617Z,10.80
2023-04-15T04:32:46.574Z,9.40
2023-04-15T04:35:27.408Z,9.70
2023-04-15T04:38:07.247Z,9.70
2023-04-15T04:40:57.270Z,11.20
2023-04-15T04:43:37.182Z,9.90
2023-04-15T04:46:13.606Z,10.40
2023-04-15T04:49:04.761Z,11.50
2023-04-15T04:51:46.432Z,9.70
2023-04-15T04:54:36.333Z,9.80
2023-04-15T04:57:22.142Z,10.50
2023-04-15T05:00:11.478Z,10.90
2023-04-15T05:02:55.611Z,9.20
2023-04-15T05:05:44.389Z,10.90
2023-04-15T05:08:51.659Z,12.40
2023-04-15T05:11:40.494Z,11.70
2023-04-15T05:17:15.290Z,11.70
2023-04-15T05:19:49.471Z,12.10
2023-04-15T05:22:23.789Z,15.00
2023-04-15T05:25:04.670Z,17.50
2023-04-15T05:27:38.143Z,20.80
2023-04-15T05:30:22.290Z,21.60
2023-04-15T05:32:59.658Z,21.40
2023-04-15T05:35:57.764Z,21.60
2023-04-15T05:38:50.852Z,19.90
2023-04-15T05:41:36.851Z,19.80
2023-04-15T05:44:58.684Z,21.20
2023-04-15T05:47:34.288Z,22.00
2023-04-15T05:50:26.874Z,20.00
2023-04-15T05:53:41.424Z,23.50
2023-04-15T05:56:50.757Z,22.50
2023-04-15T05:59:29.275Z,22.30
2023-04-15T06:02:46.153Z,20.40
2023-04-15T06:05:51.696Z,17.90
2023-04-15T06:08:47.801Z,19.00
2023-04-15T06:11:34.397Z,19.40
2023-04-15T06:17:23.051Z,22.80
2023-04-15T06:20:23.590Z,22.80
2023-04-15T06:22:56.139Z,23.90
2023-04-15T06:25:50.169Z,25.50
2023-04-15T06:28:53.153Z,24.80
2023-04-15T06:31:41.664Z,23.70
2023-04-15T06:34:30.836Z,20.90
2023-04-15T06:37:23.825Z,22.80
2023-04-15T06:40:01.600Z,20.30
2023-04-15T06:42:40.887Z,19.00
2023-04-15T06:45:22.920Z,18.90
2023-04-15T06:48:06.706Z,20.40
2023-04-15T06:55:24.926Z,27.00
2023-04-15T06:58:23.538Z,16.80
2023-04-15T07:01:03.974Z,15.00
2023-04-15T07:03:40.503Z,13.40
2023-04-15T07:06:15.572Z,12.80
2023-04-15T07:08:51.634Z,11.00
2023-04-15T07:11:32.088Z,11.30
2023-04-15T07:14:12.941Z,9.00
2023-04-15T07:19:48.967Z,12.50
2023-04-15T07:25:26.806Z,11.00
2023-04-15T07:28:00.526Z,11.50
2023-04-15T07:30:33.344Z,19.80
2023-04-15T07:33:05.915Z,25.30
2023-04-15T07:35:38.485Z,28.40
2023-04-15T07:38:14.055Z,27.60
2023-04-15T07:40:51.508Z,21.70
2023-04-15T07:43:33.237Z,18.50
2023-04-15T07:46:33.931Z,17.30
2023-04-15T07:49:12.488Z,19.40
2023-04-15T07:51:50.966Z,16.30
2023-04-15T07:54:48.310Z,34.00
2023-04-15T07:57:24.992Z,20.00
2023-04-15T08:00:07.563Z,16.40
2023-04-15T08:02:55.032Z,21.40
2023-04-15T08:06:00.109Z,26.40
2023-04-15T08:08:34.122Z,24.90
2023-04-15T08:11:12.564Z,12.30
2023-04-15T08:14:15.207Z,15.50
2023-04-15T08:16:53.362Z,15.60
2023-04-15T08:19:46.100Z,17.90
2023-04-15T08:22:27.723Z,21.50
2023-04-15T08:25:13.872Z,27.10
2023-04-15T08:28:03.664Z,26.60
2023-04-15T08:30:45.799Z,15.20
2023-04-15T08:33:33.728Z,8.50
2023-04-15T08:36:20.920Z,13.60
2023-04-15T08:39:02.934Z,13.90
2023-04-15T08:42:09.979Z,19.50
2023-04-15T08:44:52.183Z,20.60
2023-04-15T08:47:47.035Z,14.50
2023-04-15T08:50:41.657Z,16.60
2023-04-15T08:56:43.792Z,16.80
2023-04-15T08:59:43.353Z,20.80
2023-04-15T09:02:39.961Z,22.20
2023-04-15T09:05:35.146Z,19.70
2023-04-15T09:08:13.332Z,17.10
2023-04-15T09:10:55.360Z,15.70
2023-04-15T09:14:20.298Z,19.50
2023-04-15T09:17:10.290Z,16.70
2023-04-15T09:19:44.520Z,17.70
2023-04-15T09:22:33.825Z,17.10
2023-04-15T09:25:25.561Z,15.70
2023-04-15T09:28:02.884Z,19.00
2023-04-15T09:30:41.002Z,21.70
2023-04-15T09:33:18.695Z,23.80
2023-04-15T09:36:13.774Z,21.30
2023-04-15T09:39:03.958Z,17.80
2023-04-15T09:42:21.299Z,15.80
2023-04-15T09:44:56.095Z,19.10
2023-04-15T09:47:46.643Z,19.40
2023-04-15T09:51:04.429Z,16.20
2023-04-15T09:53:49.691Z,17.90
2023-04-15T09:56:29.911Z,24.80
2023-04-15T09:59:37.757Z,15.70
2023-04-15T10:02:38.985Z,15.30
2023-04-15T10:08:44.261Z,20.10
2023-04-15T10:11:28.310Z,14.40
2023-04-15T10:14:33.133Z,14.10
2023-04-15T10:17:31.787Z,13.20
2023-04-15T10:20:38.459Z,15.20
2023-04-15T10:23:37.186Z,18.20
2023-04-15T10:26:27.221Z,16.90
2023-04-15T10:29:22.199Z,24.10
2023-04-15T10:32:17.259Z,20.10
2023-04-15T10:35:10.434Z,18.00
2023-04-15T10:37:49.239Z,16.80
2023-04-15T10:40:36.857Z,16.90
2023-04-15T10:43:48.257Z,18.90
2023-04-15T10:46:49.624Z,16.40
2023-04-15T10:49:50.504Z,17.50
2023-04-15T10:52:30.744Z,21.10
2023-04-15T10:55:52.822Z,16.20
2023-04-15T10:59:31.411Z,18.30
2023-04-15T11:02:12.636Z,22.30
2023-04-15T11:04:58.284Z,17.40
2023-04-15T11:10:58.482Z,14.90
2023-04-15T11:14:07.878Z,14.30
2023-04-15T11:17:01.321Z,16.10
2023-04-15T11:19:47.670Z,15.10
2023-04-15T11:22:28.476Z,14.10
2023-04-15T11:25:11.349Z,13.40
2023-04-15T11:28:01.500Z,12.30
2023-04-15T11:31:09.629Z,14.50
2023-04-15T11:34:11.444Z,15.70
2023-04-15T11:37:22.101Z,14.70
2023-04-15T11:40:17.699Z,16.70
2023-04-15T11:43:48.882Z,16.40
2023-04-15T11:49:48.142Z,16.80
2023-04-15T11:52:22.847Z,14.90
2023-04-15T11:55:14.576Z,16.70
2023-04-15T11:57:52.760Z,14.60
2023-04-15T12:04:07.924Z,15.20
2023-04-15T12:07:01.791Z,15.90
2023-04-15T12:09:40.268Z,14.20
2023-04-15T12:12:41.635Z,12.20
2023-04-15T12:15:21.938Z,12.20
2023-04-15T12:17:57.048Z,15.30
2023-04-15T12:20:44.940Z,15.80
2023-04-15T12:23:22.775Z,10.80
2023-04-15T12:25:53.399Z,9.10
2023-04-15T12:28:44.463Z,7.20
2023-04-15T12:38:07.036Z,6.60
2023-04-15T12:41:04.036Z,6.60
2023-04-15T12:43:42.614Z,5.50
2023-04-15T12:46:14.322Z,6.00
2023-04-15T12:49:08.853Z,6.00
2023-04-15T12:52:16.704Z,5.80
2023-04-15T12:55:05.287Z,6.40
2023-04-15T12:58:05.166Z,6.90
2023-04-15T13:02:06.051Z,7.20
2023-04-15T13:05:19.389Z,5.30
2023-04-15T13:08:12.148Z,6.00
2023-04-15T13:11:21.076Z,7.20
2023-04-15T13:14:01.220Z,9.90
2023-04-15T13:16:51.528Z,6.60
2023-04-15T13:19:40.060Z,7.10
2023-04-15T13:22:23.156Z,6.10
2023-04-15T13:24:55.585Z,5.30
2023-04-15T13:27:34.081Z,6.30
2023-04-15T13:33:18.810Z,5.50
2023-04-15T13:36:00.768Z,6.70
2023-04-15T13:38:52.784Z,6.40
2023-04-15T13:41:35.508Z,8.80
2023-04-15T13:44:17.371Z,8.80
2023-04-15T13:47:04.237Z,28.00
2023-04-15T13:49:57.097Z,8.20
2023-04-15T13:52:31.849Z,6.00
2023-04-15T13:55:20.419Z,6.00
2023-04-15T13:58:02.416Z,6.00
2023-04-15T14:00:36.012Z,5.70
2023-04-15T14:03:53.402Z,6.30
2023-04-15T14:06:56.080Z,6.30
2023-04-15T14:09:59.332Z,5.90
2023-04-15T14:12:59.964Z,5.40
2023-04-15T14:15:48.646Z,5.70
2023-04-15T14:18:45.813Z,5.30
2023-04-15T14:21:24.376Z,5.10
2023-04-15T14:24:02.184Z,64.60
2023-04-15T14:26:46.278Z,11.10
2023-04-15T14:29:32.386Z,5.50
2023-04-15T14:32:17.356Z,5.90
2023-04-15T14:35:31.980Z,7.30
2023-04-15T14:38:23.024Z,4.60
2023-04-15T14:40:58.450Z,4.40
2023-04-15T14:43:40.011Z,2.90
2023-04-15T14:46:42.143Z,3.30
2023-04-15T14:49:24.310Z,3.90
2023-04-15T14:52:10.547Z,3.40
2023-04-15T14:54:50.189Z,3.40
2023-04-15T14:57:41.869Z,3.80
2023-04-15T15:03:44.173Z,4.20
2023-04-15T15:06:27.938Z,4.80
2023-04-15T15:09:10.936Z,3.50
2023-04-15T15:11:53.742Z,14.80
2023-04-15T15:14:35.642Z,7.10
2023-04-15T15:17:26.072Z,6.80
2023-04-15T15:20:20.382Z,6.50
2023-04-15T15:23:06.210Z,7.90
2023-04-15T15:26:11.517Z,6.00
2023-04-15T15:28:54.071Z,5.30
2023-04-15T15:31:36.110Z,6.00
2023-04-15T15:34:10.885Z,7.20
2023-04-15T15:36:46.985Z,7.60
2023-04-15T15:39:30.810Z,6.00
2023-04-15T15:42:08.326Z,6.60
2023-04-15T15:44:47.412Z,6.20
2023-04-15T15:47:32.268Z,6.00
2023-04-15T15:50:21.706Z,6.30
2023-04-15T15:53:13.025Z,8.10
2023-04-15T15:55:59.844Z,8.30
2023-04-15T15:58:37.793Z,7.60
2023-04-15T16:01:21.294Z,9.10
2023-04-15T16:03:54.503Z,8.20
2023-04-15T16:06:27.801Z,7.90
2023-04-15T16:09:03.035Z,6.60
2023-04-15T16:11:44.617Z,6.40
2023-04-15T16:14:34.413Z,6.80
2023-04-15T16:17:45.556Z,9.00
2023-04-15T16:21:02.649Z,6.60
2023-04-15T16:23:40.848Z,7.90
2023-04-15T16:26:16.697Z,7.30
2023-04-15T16:28:49.536Z,6.90
2023-04-15T16:31:27.141Z,10.50
2023-04-15T16:34:17.811Z,9.80
2023-04-15T16:36:57.467Z,9.40
2023-04-15T16:39:27.572Z,6.40
2023-04-15T16:42:00.612Z,7.50
2023-04-15T16:44:46.197Z,7.00
2023-04-15T16:47:28.865Z,8.40
2023-04-15T16:50:02.078Z,7.70
2023-04-15T16:52:34.006Z,10.00
2023-04-15T16:55:05.777Z,7.60
2023-04-15T16:58:03.178Z,8.00
2023-04-15T17:00:45.830Z,8.20
2023-04-15T17:03:22.222Z,9.10
2023-04-15T17:05:57.017Z,10.90
2023-04-15T17:08:29.573Z,10.80
2023-04-15T17:11:00.682Z,10.50
2023-04-15T17:13:46.525Z,10.80
2023-04-15T17:16:26.793Z,13.20
2023-04-15T17:21:58.431Z,13.70
2023-04-15T17:24:41.455Z,14.90
2023-04-15T17:27:27.865Z,16.50
2023-04-15T17:30:09.242Z,14.40
2023-04-15T17:35:21.933Z,17.90
2023-04-15T17:38:01.975Z,16.60
2023-04-15T17:40:39.999Z,21.40
2023-04-15T17:43:14.070Z,18.80
2023-04-15T17:45:58.809Z,17.50
2023-04-15T17:48:40.626Z,22.00
2023-04-15T17:51:29.697Z,21.10
2023-04-15T17:54:16.818Z,17.50
2023-04-15T17:57:32.768Z,16.80
2023-04-15T18:00:29.493Z,15.20
2023-04-15T18:03:25.966Z,19.00
2023-04-15T18:25:04.970Z,27.90
2023-04-15T18:28:01.280Z,33.90
2023-04-15T18:31:32.805Z,43.30
2023-04-15T18:34:25.565Z,39.10
2023-04-15T18:37:33.663Z,40.50
2023-04-15T18:40:51.029Z,39.80
2023-04-15T19:02:34.287Z,44.50
2023-04-15T19:05:32.652Z,58.80
2023-04-15T19:08:30.525Z,80.30
2023-04-15T19:11:38.536Z,57.10
2023-04-15T19:14:25.626Z,71.20
2023-04-15T19:17:05.164Z,69.00
2023-04-15T19:20:08.991Z,73.30
2023-04-15T19:23:33.649Z,71.20
2023-04-15T19:26:25.284Z,68.30
2023-04-15T19:32:24.938Z,64.70
2023-04-15T19:35:26.434Z,69.00
2023-04-15T19:38:16.373Z,64.90
2023-04-15T19:41:17.267Z,61.70
2023-04-15T19:44:22.077Z,61.20
2023-04-15T19:47:28.628Z,60.80
2023-04-15T19:50:16.338Z,61.20
2023-04-15T19:53:23.817Z,59.20
2023-04-15T19:56:28.822Z,57.20
2023-04-15T19:59:51.871Z,55.80
2023-04-15T20:03:11.585Z,60.10
2023-04-15T20:06:02.604Z,93.10
2023-04-15T20:08:45.665Z,77.50
2023-04-15T20:12:46.851Z,65.90
2023-04-15T20:14:41.951Z,63.10
2023-04-15T20:17:34.721Z,64.30
2023-04-15T20:20:29.707Z,78.70
2023-04-15T20:23:18.285Z,70.70
2023-04-15T20:26:10.431Z,62.80
2023-04-15T20:29:00.402Z,63.90
2023-04-15T20:31:48.957Z,65.80
2023-04-15T20:34:42.944Z,67.80
2023-04-15T20:37:39.442Z,67.90
2023-04-15T20:40:27.784Z,69.00
2023-04-15T20:43:27.899Z,68.20
2023-04-15T20:46:34.381Z,69.70
2023-04-15T20:49:56.146Z,67.20
2023-04-15T20:52:39.275Z,74.70
2023-04-15T20:55:28.332Z,78.30
2023-04-15T20:58:29.338Z,73.00
2023-04-15T21:01:05.590Z,77.70
2023-04-15T21:07:00.384Z,73.40
2023-04-15T21:13:29.749Z,76.00
2023-04-15T21:16:39.084Z,78.30
2023-04-15T21:19:38.048Z,83.20
2023-04-15T21:26:15.048Z,83.40
2023-04-15T21:29:47.327Z,77.70
2023-04-15T21:42:52.908Z,99.30
2023-04-15T21:46:21.440Z,92.50
2023-04-15T21:49:15.492Z,86.00
2023-04-15T21:52:33.425Z,93.00
2023-04-15T21:55:38.635Z,98.10
2023-04-15T21:58:50.172Z,91.50
2023-04-15T22:05:58.566Z,103.60
2023-04-15T22:11:58.902Z,99.90
2023-04-15T22:15:00.414Z,96.50
2023-04-15T22:21:06.001Z,86.70
2023-04-15T22:26:56.242Z,83.40
2023-04-15T22:30:15.014Z,97.10
2023-04-15T22:33:08.394Z,91.80
2023-04-15T22:36:09.278Z,90.70
2023-04-15T22:39:24.919Z,91.00
2023-04-15T22:45:45.731Z,85.60
2023-04-15T22:48:42.802Z,70.00
2023-04-15T22:51:39.788Z,60.70
2023-04-15T22:54:32.416Z,56.50
2023-04-15T22:57:28.843Z,52.20
2023-04-15T23:00:18.624Z,51.00
2023-04-15T23:02:56.486Z,47.70
2023-04-15T23:06:01.504Z,44.80
2023-04-15T23:08:50.647Z,44.30
2023-04-15T23:11:40.510Z,44.50
2023-04-15T23:14:37.309Z,46.60
2023-04-15T23:17:27.348Z,47.50
2023-04-15T23:20:10.733Z,48.80
2023-04-15T23:22:52.286Z,48.30
2023-04-15T23:25:38.342Z,50.20
2023-04-15T23:28:43.595Z,52.40
2023-04-15T23:31:16.493Z,57.00
2023-04-15T23:33:58.744Z,58.70
2023-04-15T23:36:59.678Z,60.70
2023-04-15T23:39:48.704Z,66.20
2023-04-15T23:42:29.523Z,68.20
2023-04-15T23:45:27.105Z,69.50
2023-04-15T23:48:11.476Z,65.60
2023-04-15T23:51:07.734Z,71.30
2023-04-15T23:56:55.021Z,71.10
2023-04-15T23:59:49.640Z,65.60
